createdAt,value
2024-02-01T00:04:02.538Z,66.60
2024-02-01T00:09:07.401Z,67.50
2024-02-01T00:14:10.853Z,66.70
2024-02-01T00:19:14.297Z,66.70
2024-02-01T00:24:20.156Z,66.70
2024-02-01T00:29:23.511Z,66.80
2024-02-01T00:34:26.917Z,66.80
2024-02-01T00:39:31.585Z,67.00
2024-02-01T00:44:34.908Z,67.00
2024-02-01T00:49:38.421Z,67.20
2024-02-01T00:54:43.079Z,67.20
2024-02-01T00:59:46.515Z,68.10
2024-02-01T01:04:49.860Z,67.30
2024-02-01T01:09:54.618Z,67.20
2024-02-01T01:14:57.883Z,67.30
2024-02-01T01:20:04.545Z,67.30
2024-02-01T01:25:09.696Z,67.20
2024-02-01T01:30:14.220Z,67.20
2024-02-01T01:35:17.594Z,67.20
2024-02-01T01:40:22.248Z,67.20
2024-02-01T01:45:25.557Z,67.30
2024-02-01T01:50:29.282Z,67.30
2024-02-01T01:55:34.135Z,67.30
2024-02-01T02:00:37.435Z,67.50
2024-02-01T02:05:42.540Z,67.40
2024-02-01T02:10:47.384Z,67.50
2024-02-01T02:15:50.623Z,67.60
2024-02-01T02:20:57.747Z,67.60
2024-02-01T02:26:03.447Z,67.60
2024-02-01T02:31:06.845Z,67.60
2024-02-01T02:36:11.465Z,67.60
2024-02-01T02:41:17.789Z,67.60
2024-02-01T02:46:21.273Z,67.60
2024-02-01T02:51:24.551Z,67.50
2024-02-01T02:56:29.184Z,67.50
2024-02-01T03:01:32.755Z,67.50
2024-02-01T03:06:36.595Z,67.50
2024-02-01T03:11:41.347Z,67.40
2024-02-01T03:16:44.678Z,67.50
2024-02-01T03:21:49.626Z,67.60
2024-02-01T03:26:54.255Z,67.50
2024-02-01T03:31:57.840Z,67.60
2024-02-01T03:37:02.921Z,67.60
2024-02-01T03:42:09.137Z,67.70
2024-02-01T03:47:12.480Z,67.80
2024-02-01T03:52:21.776Z,67.90
2024-02-01T03:57:27.151Z,67.90
2024-02-01T04:02:30.414Z,68.00
2024-02-01T04:07:41.015Z,68.10
2024-02-01T04:12:45.687Z,68.20
2024-02-01T04:17:50.487Z,68.40
2024-02-01T04:22:55.132Z,68.30
2024-02-01T04:27:59.938Z,68.40
2024-02-01T04:33:03.846Z,68.60
2024-02-01T04:38:07.158Z,68.60
2024-02-01T04:43:11.821Z,68.70
2024-02-01T04:48:15.317Z,68.80
2024-02-01T04:53:18.673Z,68.80
2024-02-01T04:58:23.924Z,68.80
2024-02-01T05:03:29.770Z,68.90
2024-02-01T05:08:33.555Z,68.90
2024-02-01T05:13:38.328Z,69.10
2024-02-01T05:18:42.160Z,69.30
2024-02-01T05:23:50.772Z,69.40
2024-02-01T05:28:55.463Z,69.50
2024-02-01T05:33:58.915Z,69.60
2024-02-01T05:39:06.957Z,69.70
2024-02-01T05:44:13.864Z,70.00
2024-02-01T05:49:19.952Z,70.20
2024-02-01T05:54:23.658Z,72.10
2024-02-01T05:59:28.316Z,73.50
2024-02-01T06:04:31.576Z,72.60
2024-02-01T06:09:34.972Z,71.90
2024-02-01T06:14:39.849Z,71.40
2024-02-01T06:19:43.311Z,71.00
2024-02-01T06:24:46.664Z,70.70
2024-02-01T06:29:51.440Z,70.40
2024-02-01T06:35:00.259Z,71.20
2024-02-01T06:40:29.918Z,71.20
2024-02-01T06:45:43.754Z,71.30
2024-02-01T06:50:59.132Z,70.80
2024-02-01T06:56:09.050Z,70.60
2024-02-01T07:01:35.278Z,70.30
2024-02-01T07:06:40.666Z,70.20
2024-02-01T07:12:00.005Z,70.10
2024-02-01T07:17:28.716Z,70.00
2024-02-01T07:22:41.238Z,69.90
2024-02-01T07:28:02.111Z,69.90
2024-02-01T07:33:24.269Z,69.80
2024-02-01T07:38:45.145Z,69.80
2024-02-01T07:44:05.909Z,69.90
2024-02-01T07:49:28.417Z,69.70
2024-02-01T07:54:49.169Z,69.40
2024-02-01T07:59:52.512Z,69.40
2024-02-01T08:05:14.451Z,69.30
2024-02-01T08:10:20.582Z,69.10
2024-02-01T08:15:25.530Z,69.20
2024-02-01T08:20:36.105Z,69.20
2024-02-01T08:25:41.995Z,69.30
2024-02-01T08:30:46.742Z,69.40
2024-02-01T08:35:51.367Z,69.40
2024-02-01T08:40:54.793Z,69.30
2024-02-01T08:45:58.182Z,69.20
2024-02-01T08:51:03.793Z,69.10
2024-02-01T08:56:07.705Z,69.00
2024-02-01T09:01:24.640Z,69.10
2024-02-01T09:06:30.045Z,69.00
2024-02-01T09:11:33.410Z,69.00
2024-02-01T09:16:36.779Z,69.00
2024-02-01T09:21:41.941Z,69.80
2024-02-01T09:26:45.227Z,68.90
2024-02-01T09:31:50.131Z,68.70
2024-02-01T09:36:54.816Z,68.50
2024-02-01T09:41:59.474Z,68.50
2024-02-01T09:47:05.953Z,68.50
2024-02-01T09:52:11.192Z,68.30
2024-02-01T09:57:16.795Z,68.20
2024-02-01T10:02:20.078Z,68.40
2024-02-01T10:07:25.857Z,68.50
2024-02-01T10:12:30.534Z,68.70
2024-02-01T10:17:33.897Z,68.70
2024-02-01T10:22:38.649Z,68.70
2024-02-01T10:27:41.934Z,68.80
2024-02-01T10:32:51.077Z,69.00
2024-02-01T10:37:56.825Z,69.30
2024-02-01T10:43:03.001Z,69.40
2024-02-01T10:48:11.809Z,69.70
2024-02-01T10:53:18.795Z,69.70
2024-02-01T10:58:23.126Z,69.60
2024-02-01T11:03:28.717Z,69.70
2024-02-01T11:08:35.378Z,69.70
2024-02-01T11:13:38.695Z,69.90
2024-02-01T11:18:51.801Z,69.70
2024-02-01T11:24:06.983Z,70.60
2024-02-01T11:29:11.842Z,70.80
2024-02-01T11:34:15.410Z,70.20
2024-02-01T11:39:20.683Z,70.20
2024-02-01T11:44:28.139Z,70.50
2024-02-01T11:49:32.729Z,70.40
2024-02-01T11:54:37.637Z,70.60
2024-02-01T11:59:41.024Z,70.80
2024-02-01T12:04:47.310Z,70.80
2024-02-01T12:09:52.385Z,70.90
2024-02-01T12:14:55.949Z,71.00
2024-02-01T12:19:59.487Z,70.80
2024-02-01T12:25:04.614Z,71.00
2024-02-01T12:30:12.743Z,71.30
2024-02-01T12:35:18.272Z,71.20
2024-02-01T12:40:23.556Z,71.20
2024-02-01T12:45:26.864Z,71.40
2024-02-01T12:50:37.925Z,71.20
2024-02-01T12:55:43.290Z,71.40
2024-02-01T13:00:48.575Z,71.40
2024-02-01T13:05:52.400Z,71.80
2024-02-01T13:10:57.378Z,71.60
2024-02-01T13:16:00.753Z,71.70
2024-02-01T13:21:05.577Z,71.40
2024-02-01T13:26:11.434Z,71.40
2024-02-01T13:31:14.831Z,71.50
2024-02-01T13:36:18.331Z,71.40
2024-02-01T13:41:23.200Z,71.40
2024-02-01T13:46:26.470Z,71.60
2024-02-01T13:51:29.735Z,71.60
2024-02-01T13:56:34.365Z,71.60
2024-02-01T14:01:37.713Z,71.70
2024-02-01T14:06:41.088Z,71.70
2024-02-01T14:11:45.851Z,71.70
2024-02-01T14:16:49.168Z,71.90
2024-02-01T14:21:53.015Z,71.90
2024-02-01T14:26:57.717Z,72.30
2024-02-01T14:32:01.064Z,72.40
2024-02-01T14:37:04.497Z,72.30
2024-02-01T14:42:09.766Z,72.30
2024-02-01T14:47:13.109Z,72.50
2024-02-01T14:52:18.368Z,72.30
2024-02-01T14:57:23.472Z,72.40
2024-02-01T15:02:26.995Z,72.50
2024-02-01T15:07:30.282Z,72.30
2024-02-01T15:12:34.940Z,72.30
2024-02-01T15:17:38.321Z,72.30
2024-02-01T15:22:42.420Z,72.40
2024-02-01T15:27:47.145Z,72.50
2024-02-01T15:32:50.568Z,72.70
2024-02-01T15:37:53.956Z,72.70
2024-02-01T15:43:00.495Z,72.50
2024-02-01T15:48:04.112Z,72.60
2024-02-01T15:53:09.640Z,72.40
2024-02-01T15:58:14.527Z,72.50
2024-02-01T16:03:18.073Z,72.50
2024-02-01T16:08:21.889Z,72.40
2024-02-01T16:13:26.990Z,72.50
2024-02-01T16:18:39.121Z,72.60
2024-02-01T16:23:46.925Z,73.00
2024-02-01T16:28:51.995Z,73.00
2024-02-01T16:33:59.728Z,73.90
2024-02-01T16:39:05.449Z,73.70
2024-02-01T16:44:20.954Z,73.60
2024-02-01T16:49:25.148Z,73.50
2024-02-01T16:54:29.134Z,73.10
2024-02-01T16:59:33.899Z,73.00
2024-02-01T17:04:41.196Z,73.10
2024-02-01T17:09:44.752Z,72.80
2024-02-01T17:14:49.470Z,72.80
2024-02-01T17:19:53.337Z,73.00
2024-02-01T17:24:58.091Z,72.90
2024-02-01T17:30:08.501Z,72.90
2024-02-01T17:35:11.993Z,73.20
2024-02-01T17:40:16.583Z,73.10
2024-02-01T17:45:38.250Z,73.20
2024-02-01T17:50:46.226Z,74.00
2024-02-01T17:55:52.665Z,73.40
2024-02-01T18:00:57.691Z,73.50
2024-02-01T18:06:02.518Z,73.50
2024-02-01T18:11:07.037Z,73.50
2024-02-01T18:16:15.884Z,73.50
2024-02-01T18:21:23.161Z,73.70
2024-02-01T18:26:27.130Z,73.50
2024-02-01T18:31:32.147Z,73.30
2024-02-01T18:36:37.371Z,73.50
2024-02-01T18:41:42.156Z,73.20
2024-02-01T18:46:49.964Z,73.20
2024-02-01T18:52:02.359Z,73.50
2024-02-01T18:57:08.635Z,73.90
2024-02-01T19:02:42.570Z,73.60
2024-02-01T19:07:47.997Z,73.80
2024-02-01T19:12:53.031Z,73.50
2024-02-01T19:17:58.079Z,73.70
2024-02-01T19:23:01.635Z,73.50
2024-02-01T19:28:06.203Z,73.50
2024-02-01T19:33:18.133Z,73.20
2024-02-01T19:38:26.556Z,73.20
2024-02-01T19:43:33.070Z,73.10
2024-02-01T19:48:37.883Z,72.90
2024-02-01T19:53:41.889Z,72.80
2024-02-01T19:58:45.589Z,72.70
2024-02-01T20:03:51.588Z,72.60
2024-02-01T20:08:57.646Z,72.60
2024-02-01T20:14:03.816Z,72.40
2024-02-01T20:19:09.900Z,72.30
2024-02-01T20:24:18.729Z,72.20
2024-02-01T20:29:22.620Z,71.80
2024-02-01T20:34:40.239Z,71.60
2024-02-01T20:39:45.019Z,71.30
2024-02-01T20:44:49.199Z,71.40
2024-02-01T20:49:54.948Z,71.30
2024-02-01T20:55:25.214Z,71.30
2024-02-01T21:00:29.004Z,71.10
2024-02-01T21:05:38.933Z,71.30
2024-02-01T21:10:50.897Z,71.10
2024-02-01T21:15:56.199Z,71.10
2024-02-01T21:21:05.876Z,72.10
2024-02-01T21:26:19.394Z,71.10
2024-02-01T21:31:42.635Z,70.90
2024-02-01T21:36:57.201Z,70.80
2024-02-01T21:42:00.699Z,70.90
2024-02-01T21:47:05.108Z,71.60
2024-02-01T21:52:10.062Z,71.30
2024-02-01T21:57:13.626Z,70.90
2024-02-01T22:02:17.144Z,70.80
2024-02-01T22:07:21.843Z,70.70
2024-02-01T22:12:25.367Z,70.50
2024-02-01T22:17:28.994Z,70.50
2024-02-01T22:22:36.860Z,70.40
2024-02-01T22:27:40.368Z,70.30
2024-02-01T22:32:44.821Z,70.30
2024-02-01T22:37:49.684Z,70.30
2024-02-01T22:42:53.063Z,70.20
2024-02-01T22:47:56.510Z,70.30
2024-02-01T22:53:01.888Z,70.20
2024-02-01T22:58:07.819Z,70.10
2024-02-01T23:03:11.385Z,70.00
2024-02-01T23:08:16.260Z,69.80
2024-02-01T23:13:19.719Z,69.60
2024-02-01T23:18:23.092Z,69.60
2024-02-01T23:23:28.581Z,69.40
2024-02-01T23:28:31.959Z,69.20
2024-02-01T23:33:38.170Z,69.30
2024-02-01T23:38:43.115Z,69.30
2024-02-01T23:43:46.505Z,69.00
2024-02-01T23:48:49.878Z,69.20
2024-02-01T23:53:54.741Z,69.10
2024-02-01T23:58:58.320Z,69.00
